createdAt,value
2022-11-24T00:02:51.627Z,99173.22
2022-11-24T00:05:53.875Z,99176.03
2022-11-24T00:08:56.715Z,99169.91
2022-11-24T00:12:00.855Z,99175.00
2022-11-24T00:15:04.439Z,99177.44
2022-11-24T00:18:08.692Z,99170.50
2022-11-24T00:21:11.152Z,99170.50
2022-11-24T00:24:13.283Z,99178.09
2022-11-24T00:27:18.929Z,99177.56
2022-11-24T00:30:21.176Z,99179.22
2022-11-24T00:33:23.577Z,99180.75
2022-11-24T00:36:27.032Z,99185.34
2022-11-24T00:39:29.574Z,99188.94
2022-11-24T00:42:32.013Z,99192.06
2022-11-24T00:45:34.495Z,99192.34
2022-11-24T00:48:37.004Z,99197.53
2022-11-24T00:51:39.147Z,99203.50
2022-11-24T00:54:41.064Z,99208.59
2022-11-24T00:57:44.162Z,99210.88
2022-11-24T01:00:46.657Z,99212.00
2022-11-24T01:03:50.178Z,99214.38
2022-11-24T01:06:52.445Z,99206.63
2022-11-24T01:09:54.492Z,99207.34
2022-11-24T01:12:56.622Z,99219.16
2022-11-24T01:16:01.972Z,99216.47
2022-11-24T01:19:04.112Z,99215.63
2022-11-24T01:22:06.351Z,99213.44
2022-11-24T01:25:12.362Z,99216.97
2022-11-24T01:28:14.786Z,99225.91
2022-11-24T01:31:17.222Z,99219.03
2022-11-24T01:34:19.667Z,99218.72
2022-11-24T01:37:21.876Z,99217.91
2022-11-24T01:40:24.077Z,99218.63
2022-11-24T01:43:26.607Z,99215.84
2022-11-24T01:46:31.142Z,99224.00
2022-11-24T01:49:36.415Z,99222.06
2022-11-24T01:52:42.572Z,99227.75
2022-11-24T01:55:44.909Z,99226.19
2022-11-24T01:58:48.604Z,99226.59
2022-11-24T02:01:51.956Z,99221.03
2022-11-24T02:04:54.645Z,99224.50
2022-11-24T02:07:59.544Z,99229.19
2022-11-24T02:11:04.269Z,99226.38
2022-11-24T02:14:07.657Z,99223.50
2022-11-24T02:17:11.213Z,99227.44
2022-11-24T02:20:16.635Z,99229.81
2022-11-24T02:23:18.749Z,99232.22
2022-11-24T02:26:34.199Z,99236.44
2022-11-24T02:29:36.785Z,99227.50
2022-11-24T02:32:40.683Z,99236.00
2022-11-24T02:35:43.790Z,99232.38
2022-11-24T02:38:46.259Z,99232.31
2022-11-24T02:41:57.182Z,99230.53
2022-11-24T02:45:00.742Z,99240.50
2022-11-24T02:48:03.111Z,99236.84
2022-11-24T02:51:05.585Z,99240.16
2022-11-24T02:54:07.959Z,99240.47
2022-11-24T02:57:11.616Z,99236.22
2022-11-24T03:00:22.478Z,99238.09
2022-11-24T03:03:24.805Z,99238.81
2022-11-24T03:06:29.786Z,99236.84
2022-11-24T03:09:32.441Z,99240.25
2022-11-24T03:12:41.818Z,99244.34
2022-11-24T03:15:50.604Z,99243.84
2022-11-24T03:22:26.348Z,99247.34
2022-11-24T03:25:34.490Z,99249.09
2022-11-24T03:32:16.360Z,99252.66
2022-11-24T03:38:36.442Z,99266.75
2022-11-24T03:41:38.540Z,99254.47
2022-11-24T03:44:40.522Z,99264.06
2022-11-24T03:47:42.696Z,99260.25
2022-11-24T03:50:52.948Z,99257.34
2022-11-24T03:53:54.932Z,99258.28
2022-11-24T03:56:56.799Z,99266.22
2022-11-24T03:59:59.129Z,99264.34
2022-11-24T04:03:01.311Z,99273.44
2022-11-24T04:06:03.409Z,99275.72
2022-11-24T04:09:07.478Z,99272.84
2022-11-24T04:12:28.051Z,99274.69
2022-11-24T04:15:30.808Z,99275.78
2022-11-24T04:18:32.916Z,99275.50
2022-11-24T04:21:35.129Z,99276.50
2022-11-24T04:24:39.884Z,99291.19
2022-11-24T04:27:41.841Z,99286.69
2022-11-24T04:30:45.027Z,99297.03
2022-11-24T04:33:49.163Z,99291.75
2022-11-24T04:36:51.210Z,99303.41
2022-11-24T04:39:55.801Z,99305.25
2022-11-24T04:42:58.129Z,99308.47
2022-11-24T04:46:01.830Z,99315.59
2022-11-24T04:49:05.181Z,99321.56
2022-11-24T04:52:11.147Z,99324.59
2022-11-24T04:55:13.138Z,99331.91
2022-11-24T04:58:16.533Z,99328.03
2022-11-24T05:01:21.338Z,99337.91
2022-11-24T05:04:30.582Z,99341.12
2022-11-24T05:07:35.336Z,99344.44
2022-11-24T05:10:37.578Z,99336.22
2022-11-24T05:13:40.163Z,99351.88
2022-11-24T05:16:42.335Z,99348.62
2022-11-24T06:57:26.751Z,99458.72
2022-11-24T07:39:08.256Z,99493.13
2022-11-24T07:50:14.186Z,99503.09
2022-11-24T08:01:21.086Z,99513.06
2022-11-24T08:04:23.704Z,99516.28
2022-11-24T08:07:26.715Z,99514.81
2022-11-24T08:14:37.582Z,99515.50
2022-11-24T08:21:06.330Z,99514.03
2022-11-24T08:24:24.041Z,99521.63
2022-11-24T08:27:52.955Z,99523.47
2022-11-24T08:48:48.205Z,99556.31
2022-11-24T08:52:06.825Z,99550.84
2022-11-24T08:55:52.051Z,99551.25
2022-11-24T08:58:57.990Z,99550.53
2022-11-24T09:05:59.815Z,99551.63
2022-11-24T09:20:14.856Z,99575.78
2022-11-24T09:27:01.530Z,99573.72
2022-11-24T09:30:32.265Z,99572.47
2022-11-24T09:34:00.427Z,99571.53
2022-11-24T09:40:26.971Z,99581.59
2022-11-24T09:51:11.524Z,99577.88
2022-11-24T09:54:23.115Z,99577.50
2022-11-24T10:04:22.032Z,99578.03
2022-11-24T10:07:42.158Z,99573.59
2022-11-24T10:11:22.110Z,99569.03
2022-11-24T10:14:53.257Z,99583.78
2022-11-24T10:22:00.663Z,99575.03
2022-11-24T10:25:19.223Z,99571.72
2022-11-24T10:28:45.243Z,99569.69
2022-11-24T10:32:12.607Z,99580.72
2022-11-24T10:45:23.190Z,99579.69
2022-11-24T10:48:43.084Z,99587.41
2022-11-24T10:52:10.582Z,99590.72
2022-11-24T10:59:34.769Z,99609.91
2022-11-24T11:02:52.288Z,99615.22
2022-11-24T11:05:57.849Z,99615.19
2022-11-24T11:09:22.645Z,99628.44
2022-11-24T11:12:46.002Z,99622.22
2022-11-24T11:16:05.709Z,99628.44
2022-11-24T11:20:00.089Z,99633.34
2022-11-24T11:26:23.922Z,99640.16
2022-11-24T11:36:35.350Z,99638.19
2022-11-24T11:39:43.857Z,99644.50
2022-11-24T11:43:02.233Z,99657.19
2022-11-24T11:46:16.904Z,99643.44
2022-11-24T11:49:34.089Z,99643.03
2022-11-24T11:53:00.312Z,99640.63
2022-11-24T11:56:35.780Z,99641.69
2022-11-24T11:59:46.126Z,99642.22
2022-11-24T12:03:03.154Z,99652.38
2022-11-24T12:06:09.293Z,99639.75
2022-11-24T12:09:21.180Z,99643.06
2022-11-24T12:12:39.776Z,99660.81
2022-11-24T12:16:08.520Z,99657.87
2022-11-24T12:19:20.838Z,99653.09
2022-11-24T12:22:44.949Z,99651.69
2022-11-24T12:26:03.031Z,99643.72
2022-11-24T12:29:26.476Z,99646.09
2022-11-24T12:33:03.134Z,99643.72
2022-11-24T12:36:21.827Z,99648.00
2022-11-24T12:39:34.547Z,99648.41
2022-11-24T12:42:46.233Z,99647.78
2022-11-24T12:45:58.213Z,99658.25
2022-11-24T12:49:07.761Z,99664.00
2022-11-24T12:52:22.423Z,99684.41
2022-11-24T12:55:27.239Z,99682.97
2022-11-24T12:58:39.078Z,99685.25
2022-11-24T13:01:51.481Z,99683.59
2022-11-24T13:05:12.962Z,99688.25
2022-11-24T13:08:19.109Z,99693.16
2022-11-24T13:11:30.422Z,99697.59
2022-11-24T13:15:04.022Z,99696.56
2022-11-24T13:18:36.673Z,99706.75
2022-11-24T13:21:58.546Z,99689.53
2022-11-24T13:25:23.761Z,99695.63
2022-11-24T13:29:05.775Z,99701.03
2022-11-24T13:32:23.782Z,99707.69
2022-11-24T13:35:27.315Z,99703.53
2022-11-24T13:39:09.933Z,99706.75
2022-11-24T13:42:41.770Z,99709.66
2022-11-24T13:45:51.203Z,99716.19
2022-11-24T13:49:18.943Z,99716.09
2022-11-24T13:52:52.294Z,99709.88
2022-11-24T13:56:00.649Z,99709.97
2022-11-24T13:59:23.666Z,99720.34
2022-11-24T14:02:35.084Z,99724.81
2022-11-24T14:05:39.321Z,99732.72
2022-11-24T14:08:41.799Z,99735.91
2022-11-24T14:11:58.845Z,99741.03
2022-11-24T14:15:26.335Z,99736.13
2022-11-24T14:18:43.959Z,99730.22
2022-11-24T14:22:04.546Z,99739.84
2022-11-24T14:25:25.862Z,99744.66
2022-11-24T14:28:34.720Z,99752.72
2022-11-24T14:31:55.409Z,99757.19
2022-11-24T14:35:03.027Z,99751.38
2022-11-24T14:38:13.141Z,99763.00
2022-11-24T14:41:44.406Z,99766.22
2022-11-24T14:45:10.043Z,99781.59
2022-11-24T14:51:43.286Z,99777.19
2022-11-24T14:55:22.944Z,99778.94
2022-11-24T14:58:42.186Z,99793.50
2022-11-24T15:01:49.581Z,99795.00
2022-11-24T15:05:13.431Z,99802.44
2022-11-24T15:08:17.316Z,99806.69
2022-11-24T15:11:24.280Z,99808.66
2022-11-24T15:14:39.735Z,99809.97
2022-11-24T15:17:47.420Z,99811.13
2022-11-24T15:20:51.798Z,99804.38
2022-11-24T15:24:27.597Z,99812.34
2022-11-24T15:34:47.638Z,99807.53
2022-11-24T15:37:57.775Z,99818.28
2022-11-24T15:41:00.875Z,99813.59
2022-11-24T15:44:26.803Z,99823.13
2022-11-24T15:47:37.210Z,99824.41
2022-11-24T15:57:44.457Z,99830.53
2022-11-24T16:04:50.275Z,99831.09
2022-11-24T16:11:27.941Z,99836.28
2022-11-24T16:14:39.400Z,99838.12
2022-11-24T16:17:46.378Z,99835.59
2022-11-24T16:21:13.775Z,99837.38
2022-11-24T16:24:16.588Z,99834.13
2022-11-24T16:27:20.148Z,99839.31
2022-11-24T16:37:55.428Z,99848.28
2022-11-24T16:41:05.014Z,99841.41
2022-11-24T16:44:09.084Z,99846.72
2022-11-24T16:47:13.246Z,99857.06
2022-11-24T16:50:19.662Z,99858.06
2022-11-24T16:57:16.233Z,99860.66
2022-11-24T17:00:35.071Z,99853.63
2022-11-24T17:03:46.375Z,99850.31
2022-11-24T17:06:53.952Z,99852.16
2022-11-24T17:17:22.094Z,99864.03
2022-11-24T17:20:27.485Z,99859.72
2022-11-24T17:27:29.779Z,99872.75
2022-11-24T17:30:37.014Z,99882.44
2022-11-24T17:40:28.366Z,99899.03
2022-11-24T17:43:32.221Z,99898.62
2022-11-24T17:46:55.858Z,99900.63
2022-11-24T17:50:03.762Z,99908.22
2022-11-24T17:53:21.580Z,99918.41
2022-11-24T18:00:40.345Z,99923.81
2022-11-24T18:04:03.134Z,99926.97
2022-11-24T18:11:31.083Z,99938.84
2022-11-24T18:17:45.821Z,99947.22
2022-11-24T18:21:02.600Z,99955.78
2022-11-24T18:24:24.116Z,99956.44
2022-11-24T18:28:05.781Z,99954.87
2022-11-24T18:45:50.309Z,99968.25
2022-11-24T18:49:08.782Z,99975.50
2022-11-24T19:10:03.620Z,99982.00
2022-11-24T19:13:55.634Z,99989.78
2022-11-24T19:17:14.401Z,99989.84
2022-11-24T19:27:49.596Z,100017.28
2022-11-24T19:31:28.038Z,100010.53
2022-11-24T19:48:12.475Z,100024.78
2022-11-24T20:06:27.053Z,100065.84
2022-11-24T20:09:31.742Z,100066.00
2022-11-24T20:12:37.034Z,100076.34
2022-11-24T20:15:39.099Z,100076.00
2022-11-24T20:18:47.374Z,100080.13
2022-11-24T20:25:49.570Z,100084.72
2022-11-24T20:28:56.794Z,100093.66
2022-11-24T21:00:29.946Z,100131.56
2022-11-24T21:03:39.674Z,100132.25
2022-11-24T21:06:51.072Z,100125.31
2022-11-24T21:09:58.120Z,100136.09
2022-11-24T21:13:01.485Z,100135.94
2022-11-24T21:16:16.342Z,100135.16
2022-11-24T21:19:33.059Z,100137.84
2022-11-24T21:22:36.032Z,100136.84
2022-11-24T21:25:38.421Z,100140.56
2022-11-24T21:28:54.274Z,100132.97
2022-11-24T21:32:00.967Z,100142.50
2022-11-24T21:35:07.390Z,100143.16
2022-11-24T21:38:33.848Z,100143.94
2022-11-24T21:41:43.104Z,100144.03
2022-11-24T21:44:52.551Z,100151.50
2022-11-24T21:47:56.048Z,100159.09
2022-11-24T21:51:00.209Z,100157.94
2022-11-24T21:54:02.645Z,100154.59
2022-11-24T21:57:07.902Z,100156.88
2022-11-24T22:00:12.214Z,100162.28
2022-11-24T22:03:26.517Z,100161.63
2022-11-24T22:06:32.402Z,100161.09
2022-11-24T22:09:41.028Z,100161.53
2022-11-24T22:12:47.569Z,100165.28
2022-11-24T22:16:05.002Z,100166.88
2022-11-24T22:19:33.032Z,100160.16
2022-11-24T22:22:35.683Z,100170.22
2022-11-24T22:25:37.994Z,100182.47
2022-11-24T22:28:40.730Z,100182.91
2022-11-24T22:31:46.127Z,100176.37
2022-11-24T22:34:52.318Z,100179.09
2022-11-24T22:38:06.517Z,100186.50
2022-11-24T22:41:13.500Z,100193.16
2022-11-24T22:44:21.588Z,100194.91
2022-11-24T22:47:24.482Z,100191.06
2022-11-24T22:50:42.473Z,100196.50
2022-11-24T22:53:49.157Z,100202.66
2022-11-24T22:56:51.771Z,100217.19
2022-11-24T22:59:56.847Z,100213.47
2022-11-24T23:03:00.037Z,100215.75
2022-11-24T23:06:03.781Z,100213.91
2022-11-24T23:09:08.597Z,100220.47
2022-11-24T23:12:11.062Z,100219.13
2022-11-24T23:15:13.088Z,100219.19
2022-11-24T23:18:20.495Z,100223.47
2022-11-24T23:21:25.004Z,100223.72
2022-11-24T23:24:33.623Z,100231.47
2022-11-24T23:27:37.941Z,100226.13
2022-11-24T23:30:45.171Z,100231.00
2022-11-24T23:33:48.294Z,100231.84
2022-11-24T23:36:50.592Z,100232.41
2022-11-24T23:39:54.858Z,100242.41
2022-11-24T23:43:02.512Z,100240.94
2022-11-24T23:46:14.880Z,100245.47
2022-11-24T23:49:19.187Z,100247.25
2022-11-24T23:52:21.973Z,100245.38
2022-11-24T23:55:24.521Z,100241.59
2022-11-24T23:58:27.267Z,100243.72
